Blackpool, United Kingdom

6:06 AM GMT on February 13, 2016 (GMT +0000)
ASTON PARK Blackpool united kingdom | | Change Station
CLOSE
Current Station
Personal Weather Station
Location: Blackpool, ENGLAND
Elevation: 20 ft
Nearby Weather Stations

Elev 20 ft 53.78 °N, 3.01 °W | Updated 28 seconds ago

Scattered Clouds
Scattered Clouds
37.2 °F
Feels Like 37 °F
N
0.0
Wind Variable Wind from ENE
Gusts 0.0 mph

Today
High -- | Low -- °F
--% Chance of Precip.
Yesterday
High -- | Low -- °F
Precip. -- in
Pressure 29.21 in
Visibility 6.2 miles
Clouds Few 1300 ft
Scattered Clouds 3900 ft
Windchill 37 °F
Dew Point 31 °F
Humidity 79%
Rainfall 0.00 in
Snow Depth Not available.
7:36 AM 5:16 PM
Waxing Crescent, 27% visible
METAR EGGP 130550Z 08010KT 9999 FEW013 SCT039 02/01 Q0989
Pressure 29.21 in
Visibility 6.2 miles
Clouds Few 1300 ft
Scattered Clouds 3900 ft
Windchill 37 °F
Dew Point 31 °F
Humidity 79%
Rainfall 0.00 in
Snow Depth Not available.
7:36 AM 5:16 PM
Waxing Crescent, 27% visible
METAR EGGP 130550Z 08010KT 9999 FEW013 SCT039 02/01 Q0989

10-Day Weather Forecast

Almanac

Astronomy

Feb. 13, 2016 Rise Set
Actual Time
Civil Twilight
Nautical Twilight
Astronomical Twilight
Moon
Length of Visible Light
Length of Day
Tomorrow will be .
, % of the Moon is Illuminated

Today's Extremes

Country Highs Country Lows

Community

WunderPhotos

Upload Photos

1,892,508 photos uploaded!

WunderBlog® & News

Nearby

Air Quality

  Air Quality AQ Index Pollutant
Not available.

Snow Depth

Station Depth Elevation

Earthquake Activity

City Distance Mag. Time & Date
Minimum magnitude displayed is 2.5.

Coastal Water Temperatures

Place Temperature

Stations

Nearby Weather Stations

Station Location Temp. Windchill Dew Point Humidity Wind Precip. Elev Updated Type